Time;durP1;ratioP1;P1;durP2;ratioP2;P2;SDS_P1;SDS_P2;PMS_P1;PMS_P2;Temp;Humidity;BMP_temperature;BMP_pressure;BME280_temperature;BME280_humidity;BME280_pressure;Samples;Min_cycle;Max_cycle;Signal;HPM_P1;HPM_P2
2023/04/02 00:01:39;;;;;;;;;;;;;;;0.08;76.57;101669.09;4980185;28;20438;-72
2023/04/02 00:04:10;;;;;;;;;;;;;;;-0.07;77.02;101680.41;4960347;28;20442;-72
2023/04/02 00:06:43;;;;;;;;;;;;;;;-0.12;76.88;101674.84;4963386;28;20382;-74
2023/04/02 00:09:11;;;;;;;;;;;;;;;0.01;76.28;101676.91;4957190;28;20054;-73
2023/04/02 00:11:38;;;;;;;;;;;;;;;-0.07;77.30;101674.28;4962684;28;19957;-72
2023/04/02 00:14:05;;;;;;;;;;;;;;;-0.19;77.54;101686.25;4960031;28;20045;-70
2023/04/02 00:16:31;;;;;;;;;;;;;;;0.02;76.09;101689.06;4965896;28;19938;-71
2023/04/02 00:19:03;;;;;;;;;;;;;;;-0.03;76.10;101686.13;4938661;28;19940;-72
2023/04/02 00:21:30;;;;;;;;;;;;;;;-0.19;77.00;101691.53;4960093;28;20337;-70
2023/04/02 00:23:58;;;;;;;;;;;;;;;-0.20;77.01;101698.59;4943564;28;19948;-72
2023/04/02 00:26:38;;;;;;;;;;;;;;;-0.13;76.47;101701.34;4966568;28;19998;-72
2023/04/02 00:29:04;;;;;;;;;;;;;;;-0.05;75.78;101706.56;4952297;28;19990;-70
2023/04/02 00:31:30;;;;;;;;;;;;;;;-0.23;76.58;101706.84;4950390;28;20377;-74
2023/04/02 00:33:58;;;;;;;;;;;;;;;-0.02;75.37;101719.38;4938135;28;19949;-73
2023/04/02 00:36:25;;;;;;;;;;;;;;;-0.23;76.61;101711.28;4964561;28;19976;-73
2023/04/02 00:38:52;;;;;;;;;;;;;;;-0.38;77.21;101722.56;4947513;28;19969;-71
2023/04/02 00:41:21;;;;;;;;;;;;;;;-0.30;76.65;101711.97;4943093;28;20057;-72
2023/04/02 00:43:49;;;;;;;;;;;;;;;-0.16;76.12;101733.28;4945117;28;19969;-72
2023/04/02 00:46:18;;;;;;;;;;;;;;;-0.14;76.47;101732.09;4963319;28;20020;-72
2023/04/02 00:48:48;;;;;;;;;;;;;;;0.03;75.01;101732.84;4957965;28;20306;-72
2023/04/02 00:51:21;;;;;;;;;;;;;;;0.06;74.99;101748.28;4940136;28;19950;-74
2023/04/02 00:53:48;;;;;;;;;;;;;;;-0.20;76.41;101753.91;4945411;28;19965;-74
2023/04/02 00:56:18;;;;;;;;;;;;;;;-0.15;76.35;101748.09;4961700;28;20609;-72
2023/04/02 00:58:43;;;;;;;;;;;;;;;-0.18;76.23;101756.34;4935537;28;19963;-72
2023/04/02 01:01:17;;;;;;;;;;;;;;;-0.19;76.45;101749.44;4949311;28;19953;-73
2023/04/02 01:03:52;;;;;;;;;;;;;;;-0.49;78.13;101759.78;4964043;28;20024;-73
2023/04/02 01:06:18;;;;;;;;;;;;;;;-0.28;76.85;101762.63;4945983;28;19934;-73
2023/04/02 01:08:53;;;;;;;;;;;;;;;-0.12;76.02;101764.38;4965661;28;19937;-72
2023/04/02 01:11:18;;;;;;;;;;;;;;;-0.20;76.42;101774.13;4960804;28;20700;-72
2023/04/02 01:14:02;;;;;;;;;;;;;;;-0.32;76.95;101777.16;4960819;28;20046;-73
2023/04/02 01:16:29;;;;;;;;;;;;;;;-0.30;76.96;101777.78;4944817;28;19947;-72
2023/04/02 01:19:12;;;;;;;;;;;;;;;-0.37;77.56;101789.19;4941234;28;20344;-73
2023/04/02 01:21:58;;;;;;;;;;;;;;;-0.67;78.69;101788.16;4948087;28;19958;-73
2023/04/02 01:24:28;;;;;;;;;;;;;;;-0.53;77.86;101795.34;4945427;28;20025;-72
2023/04/02 01:26:55;;;;;;;;;;;;;;;-0.36;77.30;101799.53;4956753;28;19993;-72
2023/04/02 01:29:56;;;;;;;;;;;;;;;-0.27;77.14;101797.69;4957429;28;19938;-72
2023/04/02 01:32:24;;;;;;;;;;;;;;;-0.53;78.29;101799.78;4913470;28;19945;-73
2023/04/02 01:34:50;;;;;;;;;;;;;;;-0.44;77.80;101811.91;4946388;28;19975;-73
2023/04/02 01:37:16;;;;;;;;;;;;;;;-0.41;77.52;101809.75;4957833;28;20210;-72
2023/04/02 01:39:49;;;;;;;;;;;;;;;-0.65;79.00;101817.75;4957827;28;19940;-72
2023/04/02 01:42:14;;;;;;;;;;;;;;;-0.52;77.84;101823.31;4939502;28;19935;-73
2023/04/02 01:44:43;;;;;;;;;;;;;;;-0.44;78.18;101828.53;4958570;28;20424;-72
2023/04/02 01:47:13;;;;;;;;;;;;;;;-0.70;78.75;101826.13;4944172;28;20360;-73
2023/04/02 01:49:41;;;;;;;;;;;;;;;-0.55;78.71;101831.50;4943534;28;20393;-73
2023/04/02 01:52:07;;;;;;;;;;;;;;;-0.67;79.50;101830.25;4960716;28;19945;-76
2023/04/02 01:54:33;;;;;;;;;;;;;;;-0.70;79.33;101835.84;4936041;28;19950;-75
2023/04/02 01:56:59;;;;;;;;;;;;;;;-0.63;78.83;101839.44;4940237;28;19957;-72
2023/04/02 01:59:25;;;;;;;;;;;;;;;-0.87;79.68;101838.53;4931083;28;19953;-74
2023/04/02 02:02:00;;;;;;;;;;;;;;;-0.98;80.32;101852.00;4959794;28;20229;-74
2023/04/02 02:04:26;;;;;;;;;;;;;;;-0.77;79.89;101846.22;4960276;28;19981;-74
2023/04/02 02:06:52;;;;;;;;;;;;;;;-0.79;79.86;101852.66;4944830;28;19996;-73
2023/04/02 02:09:23;;;;;;;;;;;;;;;-0.71;79.21;101850.00;4963996;28;19940;-74
2023/04/02 02:11:49;;;;;;;;;;;;;;;-0.87;80.19;101864.81;4955928;28;19967;-72
2023/04/02 02:14:17;;;;;;;;;;;;;;;-0.73;79.33;101865.13;4958937;28;19939;-73
2023/04/02 02:16:44;;;;;;;;;;;;;;;-0.72;79.43;101872.03;4939338;28;20572;-72
2023/04/02 02:19:23;;;;;;;;;;;;;;;-0.91;79.72;101866.13;4945140;28;19940;-72
2023/04/02 02:21:53;;;;;;;;;;;;;;;-0.59;78.35;101869.69;4944306;28;19954;-73
2023/04/02 02:24:23;;;;;;;;;;;;;;;-0.61;78.24;101866.41;4957466;28;19952;-71
2023/04/02 02:26:53;;;;;;;;;;;;;;;-0.63;78.26;101873.63;4955506;28;19942;-73
2023/04/02 02:29:20;;;;;;;;;;;;;;;-0.52;77.51;101877.75;4924997;28;19994;-72
2023/04/02 02:31:47;;;;;;;;;;;;;;;-0.53;76.95;101874.28;4952897;28;19983;-72
2023/04/02 02:34:20;;;;;;;;;;;;;;;-0.55;76.98;101887.59;4943859;28;19948;-73
2023/04/02 02:36:49;;;;;;;;;;;;;;;-0.29;75.66;101887.34;4964997;28;20031;-73
2023/04/02 02:39:33;;;;;;;;;;;;;;;-0.09;74.42;101886.97;4929284;28;19971;-74
2023/04/02 02:42:05;;;;;;;;;;;;;;;-0.12;74.45;101893.41;4941201;28;19958;-71
2023/04/02 02:44:34;;;;;;;;;;;;;;;-0.16;74.83;101892.09;4937585;28;19944;-74
2023/04/02 02:47:01;;;;;;;;;;;;;;;0.04;73.46;101900.41;4964064;28;19939;-74
2023/04/02 02:49:39;;;;;;;;;;;;;;;0.08;72.76;101893.81;4979812;28;19940;-71
2023/04/02 02:52:11;;;;;;;;;;;;;;;0.10;72.81;101912.06;4949137;28;20325;-74
2023/04/02 02:55:17;;;;;;;;;;;;;;;-0.03;73.48;101917.88;4961472;28;20396;-73
2023/04/02 02:57:57;;;;;;;;;;;;;;;-0.18;74.30;101925.66;4985955;28;19972;-73
2023/04/02 03:00:25;;;;;;;;;;;;;;;0.01;72.93;101935.00;4953348;28;20015;-73
2023/04/02 03:02:53;;;;;;;;;;;;;;;-0.03;73.08;101928.41;4965606;28;19939;-73
2023/04/02 03:05:22;;;;;;;;;;;;;;;-0.13;73.80;101939.16;4964705;28;19938;-75
2023/04/02 03:07:52;;;;;;;;;;;;;;;0.02;73.24;101939.25;4950156;28;19985;-73
2023/04/02 03:10:38;;;;;;;;;;;;;;;0.14;72.46;101945.81;4954023;28;20450;-73
2023/04/02 03:13:20;;;;;;;;;;;;;;;0.26;71.55;101952.31;4976069;28;20035;-76
2023/04/02 03:15:50;;;;;;;;;;;;;;;0.23;71.85;101951.84;4946467;28;19939;-73
2023/04/02 03:18:22;;;;;;;;;;;;;;;0.16;72.26;101956.97;4941143;28;19951;-73
2023/04/02 03:20:50;;;;;;;;;;;;;;;-0.09;73.48;101955.41;4943144;28;19959;-73
2023/04/02 03:23:24;;;;;;;;;;;;;;;-0.16;73.58;101960.53;4954348;28;19946;-73
2023/04/02 03:26:08;;;;;;;;;;;;;;;-0.04;73.35;101964.47;4958389;28;19939;-72
2023/04/02 03:28:40;;;;;;;;;;;;;;;-0.16;73.88;101976.34;4959126;28;19964;-73
2023/04/02 03:31:14;;;;;;;;;;;;;;;-0.13;73.92;101978.66;4957708;28;19962;-72
2023/04/02 03:33:43;;;;;;;;;;;;;;;-0.34;75.04;101988.88;4942772;28;19960;-73
2023/04/02 03:36:20;;;;;;;;;;;;;;;-0.13;73.33;101985.75;4948024;28;20349;-72
2023/04/02 03:38:50;;;;;;;;;;;;;;;-0.16;73.93;101988.69;4950153;28;19954;-72
2023/04/02 03:41:18;;;;;;;;;;;;;;;-0.22;73.90;102000.72;4965130;28;19957;-74
2023/04/02 03:43:51;;;;;;;;;;;;;;;-0.30;74.35;102006.81;4956119;28;19939;-73
2023/04/02 03:46:23;;;;;;;;;;;;;;;-0.28;74.23;102002.19;4935955;28;19941;-73
2023/04/02 03:48:51;;;;;;;;;;;;;;;-0.27;74.88;102005.69;4950049;28;19934;-74
2023/04/02 03:51:21;;;;;;;;;;;;;;;-0.35;74.92;102008.28;4966756;28;20558;-74
2023/04/02 03:53:47;;;;;;;;;;;;;;;-0.52;75.30;102018.03;4980909;28;20183;-75
2023/04/02 03:56:26;;;;;;;;;;;;;;;-0.47;75.46;102023.63;4957040;28;19940;-72
2023/04/02 03:59:01;;;;;;;;;;;;;;;-0.69;76.34;102027.72;4965195;28;19959;-73
2023/04/02 04:01:30;;;;;;;;;;;;;;;-1.05;77.76;102050.84;4978609;28;19994;-72
2023/04/02 04:04:01;;;;;;;;;;;;;;;-1.15;78.58;102051.00;4949811;28;19981;-74
2023/04/02 04:06:28;;;;;;;;;;;;;;;-0.89;77.67;102052.69;4945336;28;19971;-73
2023/04/02 04:08:59;;;;;;;;;;;;;;;-1.18;78.62;102061.81;4933107;28;19930;-74
2023/04/02 04:11:33;;;;;;;;;;;;;;;-1.27;79.03;102064.59;4982423;28;19999;-75
2023/04/02 04:14:08;;;;;;;;;;;;;;;-1.25;79.08;102062.63;4963425;28;20003;-72
2023/04/02 04:16:54;;;;;;;;;;;;;;;-1.46;80.36;102065.69;4945158;28;19969;-73
2023/04/02 04:19:44;;;;;;;;;;;;;;;-1.61;80.74;102073.34;4954122;28;20048;-73
2023/04/02 04:22:17;;;;;;;;;;;;;;;-1.59;80.91;102075.78;4959188;28;19942;-73
2023/04/02 04:24:44;;;;;;;;;;;;;;;-1.35;80.23;102077.69;4961915;28;19992;-73
2023/04/02 04:27:17;;;;;;;;;;;;;;;-1.23;79.39;102079.88;4963673;28;19943;-74
2023/04/02 04:30:02;;;;;;;;;;;;;;;-1.32;79.49;102090.53;4959323;28;19939;-73
2023/04/02 04:32:33;;;;;;;;;;;;;;;-1.50;80.27;102093.25;4959473;28;20477;-73
2023/04/02 04:35:18;;;;;;;;;;;;;;;-1.59;81.15;102096.81;4959331;28;19963;-72
2023/04/02 04:37:48;;;;;;;;;;;;;;;-1.71;81.02;102104.94;4980186;28;20040;-73
2023/04/02 04:40:21;;;;;;;;;;;;;;;-1.66;81.11;102102.69;4964586;28;19950;-72
2023/04/02 04:42:51;;;;;;;;;;;;;;;-1.77;81.13;102104.75;4952422;28;20435;-72
2023/04/02 04:45:29;;;;;;;;;;;;;;;-1.70;81.47;102114.47;4938066;28;19961;-73
2023/04/02 04:48:01;;;;;;;;;;;;;;;-1.65;82.20;102116.66;4945729;28;19970;-73
2023/04/02 04:50:31;;;;;;;;;;;;;;;-1.72;82.68;102120.88;4956925;28;19967;-73
2023/04/02 04:53:04;;;;;;;;;;;;;;;-1.80;82.34;102126.06;4954383;28;20435;-73
2023/04/02 04:55:38;;;;;;;;;;;;;;;-1.83;82.37;102126.38;4961580;28;19942;-73
2023/04/02 04:58:13;;;;;;;;;;;;;;;-1.67;81.78;102137.00;4943677;28;19960;-72
2023/04/02 05:00:48;;;;;;;;;;;;;;;-1.82;82.13;102138.56;4961483;28;20365;-72
2023/04/02 05:03:23;;;;;;;;;;;;;;;-1.75;82.36;102147.47;4958242;28;20321;-73
2023/04/02 05:05:49;;;;;;;;;;;;;;;-1.84;82.55;102154.44;4962933;28;19927;-73
2023/04/02 05:08:18;;;;;;;;;;;;;;;-1.73;82.19;102161.25;4956930;28;20115;-75
2023/04/02 05:10:46;;;;;;;;;;;;;;;-1.67;81.80;102163.28;4951875;28;19958;-74
2023/04/02 05:13:20;;;;;;;;;;;;;;;-1.54;81.57;102162.84;4942006;28;20825;-75
2023/04/02 05:15:53;;;;;;;;;;;;;;;-1.36;80.71;102168.84;4958334;28;19941;-74
2023/04/02 05:18:26;;;;;;;;;;;;;;;-1.16;79.55;102172.91;4930103;28;19956;-72
2023/04/02 05:21:23;;;;;;;;;;;;;;;-1.05;79.26;102174.44;4976331;28;19958;-71
2023/04/02 05:23:57;;;;;;;;;;;;;;;-0.75;78.15;102182.75;4937025;28;20454;-75
2023/04/02 05:26:38;;;;;;;;;;;;;;;-0.67;78.06;102188.06;4955601;28;20351;-73
2023/04/02 05:29:04;;;;;;;;;;;;;;;-0.50;77.24;102183.66;4961931;28;20042;-72
2023/04/02 05:31:37;;;;;;;;;;;;;;;-0.33;76.25;102194.06;4958175;28;20035;-73
2023/04/02 05:34:03;;;;;;;;;;;;;;;-0.15;75.60;102190.44;4960228;28;19940;-73
2023/04/02 05:36:30;;;;;;;;;;;;;;;-0.05;75.43;102194.59;4957081;28;19978;-73
2023/04/02 05:38:58;;;;;;;;;;;;;;;0.01;75.27;102193.09;4942597;28;19997;-73
2023/04/02 05:41:35;;;;;;;;;;;;;;;0.25;74.60;102197.53;4954974;28;19965;-72
2023/04/02 05:44:20;;;;;;;;;;;;;;;0.31;73.81;102202.16;4960581;28;20349;-73
2023/04/02 05:46:52;;;;;;;;;;;;;;;0.38;73.43;102200.50;4957137;28;20745;-73
2023/04/02 05:49:38;;;;;;;;;;;;;;;0.37;73.83;102208.56;4954290;28;19939;-73
2023/04/02 05:52:07;;;;;;;;;;;;;;;0.43;73.29;102210.53;4957893;28;20354;-73
2023/04/02 05:54:37;;;;;;;;;;;;;;;0.62;72.91;102219.91;4941202;28;19938;-72
2023/04/02 05:57:08;;;;;;;;;;;;;;;0.93;71.81;102225.25;4939777;28;19947;-73
2023/04/02 05:59:39;;;;;;;;;;;;;;;0.91;71.99;102216.69;4954407;28;19936;-73
2023/04/02 06:02:29;;;;;;;;;;;;;;;0.94;71.69;102221.63;4972271;28;19952;-74
2023/04/02 06:05:00;;;;;;;;;;;;;;;0.95;71.36;102218.00;4953645;28;20039;-73
2023/04/02 06:07:39;;;;;;;;;;;;;;;0.93;71.77;102225.25;4959893;28;19966;-72
2023/04/02 06:10:05;;;;;;;;;;;;;;;0.96;72.32;102230.22;4940183;28;19979;-72
2023/04/02 06:12:39;;;;;;;;;;;;;;;1.20;71.23;102238.03;4961975;28;19944;-72
2023/04/02 06:15:11;;;;;;;;;;;;;;;1.40;70.11;102238.44;4947467;28;19977;-73
2023/04/02 06:17:49;;;;;;;;;;;;;;;1.48;70.61;102240.22;4952251;28;19963;-73
2023/04/02 06:20:16;;;;;;;;;;;;;;;1.55;69.98;102249.09;4954993;28;19952;-74
2023/04/02 06:22:46;;;;;;;;;;;;;;;1.47;69.55;102249.13;4957439;28;20873;-72
2023/04/02 06:25:17;;;;;;;;;;;;;;;1.40;69.50;102259.56;4949596;28;19941;-74
2023/04/02 06:27:45;;;;;;;;;;;;;;;1.59;68.93;102255.66;4962693;28;19960;-72
2023/04/02 06:30:23;;;;;;;;;;;;;;;1.55;70.20;102251.72;4956085;28;20488;-73
2023/04/02 06:32:50;;;;;;;;;;;;;;;1.75;68.82;102268.78;4963234;28;19933;-73
2023/04/02 06:35:16;;;;;;;;;;;;;;;1.91;68.38;102273.16;4939124;28;19947;-73
2023/04/02 06:37:46;;;;;;;;;;;;;;;2.07;67.93;102269.59;4958973;28;20416;-72
2023/04/02 06:40:35;;;;;;;;;;;;;;;2.12;67.92;102270.69;4944001;28;19950;-73
2023/04/02 06:43:13;;;;;;;;;;;;;;;2.31;67.63;102280.00;4929733;28;19935;-74
2023/04/02 06:46:08;;;;;;;;;;;;;;;2.38;66.94;102291.50;4942555;28;19938;-72
2023/04/02 06:48:59;;;;;;;;;;;;;;;2.55;65.89;102291.34;4956363;28;20198;-72
2023/04/02 06:51:25;;;;;;;;;;;;;;;2.69;66.09;102295.84;4943499;28;20039;-73
2023/04/02 06:53:50;;;;;;;;;;;;;;;2.79;65.44;102309.66;4940374;28;20462;-72
2023/04/02 06:56:26;;;;;;;;;;;;;;;2.82;66.47;102301.34;4935339;28;19946;-72
2023/04/02 06:58:52;;;;;;;;;;;;;;;3.09;65.11;102314.97;4954896;28;19953;-72
2023/04/02 07:01:22;;;;;;;;;;;;;;;3.07;64.55;102317.81;4937710;28;19953;-72
2023/04/02 07:03:48;;;;;;;;;;;;;;;3.09;64.74;102317.63;4937633;28;19943;-74
2023/04/02 07:06:20;;;;;;;;;;;;;;;3.19;65.00;102321.66;4951425;28;19949;-72
2023/04/02 07:08:48;;;;;;;;;;;;;;;3.31;64.25;102319.38;4957015;28;19936;-73
2023/04/02 07:11:20;;;;;;;;;;;;;;;3.46;64.22;102328.16;4946208;28;19948;-73
2023/04/02 07:13:49;;;;;;;;;;;;;;;3.43;63.10;102325.84;4961209;28;19941;-72
2023/04/02 07:16:17;;;;;;;;;;;;;;;3.64;63.66;102326.94;4942784;28;19948;-72
2023/04/02 07:18:43;;;;;;;;;;;;;;;3.54;62.79;102329.88;4938516;28;19972;-71
2023/04/02 07:21:09;;;;;;;;;;;;;;;3.75;63.65;102331.78;4966035;28;19954;-72
2023/04/02 07:23:35;;;;;;;;;;;;;;;3.72;63.77;102332.94;4941974;28;19938;-73
2023/04/02 07:26:01;;;;;;;;;;;;;;;3.94;62.74;102346.28;4960919;28;19957;-72
2023/04/02 07:28:27;;;;;;;;;;;;;;;3.99;62.29;102344.69;4980186;28;19938;-71
2023/04/02 07:30:53;;;;;;;;;;;;;;;4.19;62.83;102355.50;4943891;28;19953;-72
2023/04/02 07:33:20;;;;;;;;;;;;;;;4.41;61.69;102364.31;4961934;28;20019;-72
2023/04/02 07:35:46;;;;;;;;;;;;;;;4.23;61.84;102366.56;4962932;28;20108;-72
2023/04/02 07:38:12;;;;;;;;;;;;;;;4.33;61.45;102367.06;4965474;28;20696;-74
2023/04/02 07:40:37;;;;;;;;;;;;;;;4.03;60.64;102356.56;4960910;28;19959;-71
2023/04/02 07:43:04;;;;;;;;;;;;;;;4.26;61.93;102376.78;4963835;28;20581;-72
2023/04/02 07:45:30;;;;;;;;;;;;;;;4.02;61.32;102370.00;4964859;28;19998;-72
2023/04/02 07:47:56;;;;;;;;;;;;;;;3.97;60.36;102380.34;4963643;28;19938;-71
2023/04/02 07:50:22;;;;;;;;;;;;;;;3.99;60.89;102389.75;4929515;28;19953;-73
2023/04/02 07:52:47;;;;;;;;;;;;;;;4.19;60.15;102381.19;4978817;28;19947;-71
2023/04/02 07:55:14;;;;;;;;;;;;;;;4.09;61.83;102395.59;4944981;28;19950;-73
2023/04/02 07:58:06;;;;;;;;;;;;;;;4.42;61.66;102395.16;4957753;28;20092;-72
2023/04/02 08:00:31;;;;;;;;;;;;;;;4.59;61.49;102407.13;4956548;28;19960;-71
2023/04/02 08:03:00;;;;;;;;;;;;;;;4.90;61.00;102406.81;4943682;28;19991;-73
2023/04/02 08:05:26;;;;;;;;;;;;;;;4.87;60.50;102411.69;4961882;28;19961;-73
2023/04/02 08:07:53;;;;;;;;;;;;;;;5.02;60.55;102406.31;4947136;28;19938;-72
2023/04/02 08:10:19;;;;;;;;;;;;;;;5.07;58.65;102417.97;4955480;28;19962;-73
2023/04/02 08:12:44;;;;;;;;;;;;;;;4.89;61.09;102420.31;4947643;28;19939;-73
2023/04/02 08:15:13;;;;;;;;;;;;;;;4.55;60.16;102419.16;4962524;28;19935;-72
2023/04/02 08:17:39;;;;;;;;;;;;;;;4.76;61.04;102409.56;4956088;28;19962;-73
2023/04/02 08:20:05;;;;;;;;;;;;;;;4.87;59.66;102428.44;4958942;28;19949;-72
2023/04/02 08:22:31;;;;;;;;;;;;;;;5.04;59.96;102425.53;4960140;28;19986;-71
2023/04/02 08:24:56;;;;;;;;;;;;;;;5.29;59.03;102421.44;4958206;28;20028;-72
2023/04/02 08:27:22;;;;;;;;;;;;;;;5.58;58.64;102430.22;4963812;28;20056;-72
2023/04/02 08:29:48;;;;;;;;;;;;;;;5.87;58.38;102439.78;4957709;28;19941;-74
2023/04/02 08:32:17;;;;;;;;;;;;;;;5.84;57.60;102434.88;4961212;28;19935;-73
2023/04/02 08:34:43;;;;;;;;;;;;;;;5.26;57.73;102436.94;4979011;28;19933;-72
2023/04/02 08:37:10;;;;;;;;;;;;;;;5.37;57.48;102433.75;4962623;28;20003;-71
2023/04/02 08:39:36;;;;;;;;;;;;;;;5.69;58.12;102438.47;4962310;28;19975;-72
2023/04/02 08:42:06;;;;;;;;;;;;;;;5.81;58.27;102437.91;4962008;28;19992;-74
2023/04/02 08:44:55;;;;;;;;;;;;;;;6.33;59.07;102433.88;4962324;28;19942;-71
2023/04/02 08:47:24;;;;;;;;;;;;;;;5.83;56.52;102447.34;4962896;28;19955;-71
2023/04/02 08:49:59;;;;;;;;;;;;;;;6.00;58.13;102455.84;4956462;28;19940;-73
2023/04/02 08:52:33;;;;;;;;;;;;;;;6.34;55.02;102444.31;4956797;28;20493;-73
2023/04/02 08:55:00;;;;;;;;;;;;;;;6.47;56.33;102457.66;4960041;28;20015;-72
2023/04/02 08:57:29;;;;;;;;;;;;;;;6.49;55.60;102460.13;4952728;28;20040;-74
2023/04/02 08:59:58;;;;;;;;;;;;;;;6.67;55.03;102467.53;4956306;28;19987;-73
2023/04/02 09:02:30;;;;;;;;;;;;;;;6.39;55.80;102473.81;4955753;28;19995;-74
2023/04/02 09:04:57;;;;;;;;;;;;;;;6.89;54.77;102470.88;4943934;28;20399;-73
2023/04/02 09:07:23;;;;;;;;;;;;;;;7.17;56.02;102474.16;4961593;28;19961;-74
2023/04/02 09:09:49;;;;;;;;;;;;;;;7.17;53.77;102473.34;4936403;28;20306;-73
2023/04/02 09:12:19;;;;;;;;;;;;;;;7.10;53.02;102478.66;4956953;28;19976;-72
2023/04/02 09:14:56;;;;;;;;;;;;;;;6.78;54.22;102475.78;4956358;28;19938;-73
2023/04/02 09:17:23;;;;;;;;;;;;;;;6.63;53.69;102487.59;4958537;28;19964;-70
2023/04/02 09:19:57;;;;;;;;;;;;;;;6.39;54.99;102496.94;4954216;28;19935;-71
2023/04/02 09:22:28;;;;;;;;;;;;;;;6.29;56.64;102502.63;4962360;28;19931;-74
2023/04/02 09:24:56;;;;;;;;;;;;;;;6.49;56.44;102500.03;4959231;28;19937;-72
2023/04/02 09:27:23;;;;;;;;;;;;;;;6.75;59.75;102510.78;4945625;28;19937;-73
2023/04/02 09:29:51;;;;;;;;;;;;;;;7.01;54.83;102507.34;4955954;28;19934;-72
2023/04/02 09:32:24;;;;;;;;;;;;;;;7.11;54.30;102518.44;4956516;28;19959;-74
2023/04/02 09:34:49;;;;;;;;;;;;;;;7.02;55.71;102510.84;4961008;28;20329;-72
2023/04/02 09:37:21;;;;;;;;;;;;;;;6.95;55.45;102516.16;4960283;28;20455;-74
2023/04/02 09:39:50;;;;;;;;;;;;;;;6.88;54.38;102517.16;4957227;28;19961;-71
2023/04/02 09:42:28;;;;;;;;;;;;;;;6.77;53.94;102519.41;4943941;28;19939;-74
2023/04/02 09:45:11;;;;;;;;;;;;;;;6.68;54.23;102520.59;4961113;28;19984;-74
2023/04/02 09:47:38;;;;;;;;;;;;;;;6.87;54.37;102536.84;4958936;28;20020;-73
2023/04/02 09:50:22;;;;;;;;;;;;;;;6.89;54.96;102529.47;4955665;28;19936;-74
2023/04/02 09:52:48;;;;;;;;;;;;;;;6.70;53.25;102531.84;4957305;28;20622;-72
2023/04/02 09:55:13;;;;;;;;;;;;;;;6.86;53.30;102543.19;4960941;28;19934;-72
2023/04/02 09:57:38;;;;;;;;;;;;;;;7.14;53.52;102522.53;4956059;28;19956;-71
2023/04/02 10:00:16;;;;;;;;;;;;;;;7.21;49.75;102547.34;4947605;28;19991;-73
2023/04/02 10:02:42;;;;;;;;;;;;;;;6.66;49.45;102538.63;4959594;28;20452;-71
2023/04/02 10:05:17;;;;;;;;;;;;;;;6.87;50.28;102547.50;4963743;28;20331;-72
2023/04/02 10:07:43;;;;;;;;;;;;;;;6.65;49.99;102533.50;4963588;28;20548;-71
2023/04/02 10:10:18;;;;;;;;;;;;;;;6.86;49.42;102538.69;4959414;28;19957;-70
2023/04/02 10:12:57;;;;;;;;;;;;;;;6.96;50.35;102540.94;4945881;28;19936;-72
2023/04/02 10:15:30;;;;;;;;;;;;;;;7.31;49.15;102544.28;4962619;28;19934;-74
2023/04/02 10:18:01;;;;;;;;;;;;;;;7.39;49.03;102541.44;4982469;28;19949;-73
2023/04/02 10:20:28;;;;;;;;;;;;;;;7.31;49.48;102550.44;4962839;28;19954;-72
2023/04/02 10:22:53;;;;;;;;;;;;;;;7.37;48.67;102554.94;4956178;28;20457;-72
2023/04/02 10:25:23;;;;;;;;;;;;;;;7.18;48.40;102565.56;4938538;28;19935;-73
2023/04/02 10:27:49;;;;;;;;;;;;;;;7.05;48.34;102558.41;4960983;28;20032;-74
2023/04/02 10:30:19;;;;;;;;;;;;;;;7.56;48.54;102568.50;4966130;28;20009;-73
2023/04/02 10:32:56;;;;;;;;;;;;;;;7.50;48.56;102579.97;4980664;28;19936;-71
2023/04/02 10:35:40;;;;;;;;;;;;;;;7.68;50.91;102572.19;4955699;28;20057;-70
2023/04/02 10:38:15;;;;;;;;;;;;;;;7.88;48.13;102590.88;4960764;28;19999;-71
2023/04/02 10:40:46;;;;;;;;;;;;;;;7.69;48.80;102586.34;4960936;28;19957;-72
2023/04/02 10:43:26;;;;;;;;;;;;;;;8.17;48.78;102592.25;4960616;28;19936;-75
2023/04/02 10:46:10;;;;;;;;;;;;;;;7.74;45.82;102602.56;4957175;28;19957;-72
2023/04/02 10:48:42;;;;;;;;;;;;;;;8.06;47.22;102599.06;4954252;28;19934;-73
2023/04/02 10:51:37;;;;;;;;;;;;;;;7.67;44.06;102613.22;4956811;28;20443;-71
2023/04/02 10:54:18;;;;;;;;;;;;;;;7.47;47.00;102615.06;4942046;28;19933;-73
2023/04/02 10:56:44;;;;;;;;;;;;;;;7.51;49.96;102618.94;4961522;28;20032;-73
2023/04/02 10:59:39;;;;;;;;;;;;;;;7.46;47.47;102611.56;4959485;28;20039;-72
2023/04/02 11:02:13;;;;;;;;;;;;;;;7.80;48.04;102610.56;4969753;28;19951;-72
2023/04/02 11:04:44;;;;;;;;;;;;;;;7.73;47.49;102622.25;4964732;28;20007;-72
2023/04/02 11:07:16;;;;;;;;;;;;;;;7.92;48.80;102622.28;4965349;28;19958;-74
2023/04/02 11:09:45;;;;;;;;;;;;;;;8.06;49.04;102625.75;4968112;28;20410;-73
2023/04/02 11:12:37;;;;;;;;;;;;;;;8.10;47.60;102626.13;4969723;23;19999;-71
2023/04/02 11:15:12;;;;;;;;;;;;;;;7.64;47.95;102630.44;5001190;28;20544;-72
2023/04/02 11:17:37;;;;;;;;;;;;;;;7.34;49.36;102630.00;5008022;28;19964;-73
2023/04/02 11:20:22;;;;;;;;;;;;;;;7.62;48.38;102627.16;4992234;28;19931;-72
2023/04/02 11:23:03;;;;;;;;;;;;;;;8.22;48.84;102637.84;4997735;28;20627;-72
2023/04/02 11:25:29;;;;;;;;;;;;;;;7.96;47.52;102645.84;4981459;28;19978;-72
2023/04/02 11:28:11;;;;;;;;;;;;;;;7.53;48.43;102639.06;5006235;28;19938;-75
2023/04/02 11:30:36;;;;;;;;;;;;;;;8.19;48.19;102640.91;5005289;28;19956;-72
2023/04/02 11:33:24;;;;;;;;;;;;;;;8.33;47.60;102649.72;5006427;28;19940;-73
2023/04/02 11:35:50;;;;;;;;;;;;;;;8.47;48.10;102649.53;4999973;28;19949;-71
2023/04/02 11:38:22;;;;;;;;;;;;;;;7.97;46.47;102658.16;4999859;28;19963;-71
2023/04/02 11:40:53;;;;;;;;;;;;;;;8.38;47.43;102657.94;4983377;28;19950;-72
2023/04/02 11:43:31;;;;;;;;;;;;;;;8.21;45.32;102660.22;4969211;28;20711;-72
2023/04/02 11:45:59;;;;;;;;;;;;;;;8.45;45.98;102662.25;5004015;28;19968;-73
2023/04/02 11:48:26;;;;;;;;;;;;;;;8.78;47.18;102668.53;5002248;28;19942;-73
2023/04/02 11:50:52;;;;;;;;;;;;;;;8.63;46.44;102666.94;4988687;28;19952;-73
2023/04/02 11:53:32;;;;;;;;;;;;;;;8.65;46.60;102677.41;5003444;28;19939;-73
2023/04/02 11:56:09;;;;;;;;;;;;;;;8.54;48.05;102672.72;5004885;28;19941;-73
2023/04/02 11:59:07;;;;;;;;;;;;;;;8.98;47.58;102672.78;5020564;28;19947;-73
2023/04/02 12:01:52;;;;;;;;;;;;;;;9.29;46.44;102665.88;4984944;28;19955;-71
2023/04/02 12:04:39;;;;;;;;;;;;;;;9.37;45.55;102681.66;5004033;28;20519;-71
2023/04/02 12:07:09;;;;;;;;;;;;;;;9.53;44.91;102678.47;5004732;28;20027;-71
2023/04/02 12:09:43;;;;;;;;;;;;;;;9.60;44.32;102689.13;5003396;28;19952;-73
2023/04/02 12:12:17;;;;;;;;;;;;;;;9.67;44.18;102694.44;5002374;28;19990;-73
2023/04/02 12:14:58;;;;;;;;;;;;;;;9.73;45.87;102705.09;5005559;28;19936;-72
2023/04/02 12:17:34;;;;;;;;;;;;;;;9.53;43.46;102702.53;4987966;28;20018;-72
2023/04/02 12:20:03;;;;;;;;;;;;;;;9.69;44.71;102703.09;4982730;28;20495;-72
2023/04/02 12:22:32;;;;;;;;;;;;;;;9.27;43.87;102716.03;5006180;28;19940;-71
2023/04/02 12:25:02;;;;;;;;;;;;;;;9.35;46.04;102718.50;4990754;28;19976;-73
2023/04/02 12:27:28;;;;;;;;;;;;;;;9.74;44.66;102719.28;4984308;28;20011;-74
2023/04/02 12:29:55;;;;;;;;;;;;;;;9.22;45.08;102713.22;4971451;28;20417;-72
2023/04/02 12:32:28;;;;;;;;;;;;;;;9.74;44.82;102716.63;5001334;28;19939;-72
2023/04/02 12:34:54;;;;;;;;;;;;;;;9.45;43.76;102718.84;5013340;28;20043;-74
2023/04/02 12:37:22;;;;;;;;;;;;;;;10.47;44.02;102722.25;5002251;28;19944;-72
2023/04/02 12:40:11;;;;;;;;;;;;;;;10.49;43.51;102720.16;4982968;28;19938;-71
2023/04/02 12:42:36;;;;;;;;;;;;;;;10.05;45.21;102721.97;4998092;28;19936;-72
2023/04/02 12:45:03;;;;;;;;;;;;;;;9.15;44.58;102717.75;4998646;28;19979;-71
2023/04/02 12:47:29;;;;;;;;;;;;;;;10.03;45.78;102721.38;5016529;28;20405;-73
2023/04/02 12:49:55;;;;;;;;;;;;;;;9.71;44.23;102723.22;4983618;28;19933;-73
2023/04/02 12:52:23;;;;;;;;;;;;;;;9.58;47.56;102710.75;5012699;28;20053;-73
2023/04/02 12:54:53;;;;;;;;;;;;;;;10.58;44.28;102718.88;4997339;28;20385;-73
2023/04/02 12:57:24;;;;;;;;;;;;;;;10.47;43.44;102724.13;4999540;28;19938;-72
2023/04/02 12:59:51;;;;;;;;;;;;;;;8.54;47.84;102723.47;5002748;28;19940;-72
2023/04/02 13:02:19;;;;;;;;;;;;;;;8.98;47.31;102722.75;5001718;28;19944;-73
2023/04/02 13:04:49;;;;;;;;;;;;;;;10.56;43.21;102720.09;4983530;28;20012;-74
2023/04/02 13:07:17;;;;;;;;;;;;;;;10.56;44.00;102720.91;4987927;28;19945;-73